UAE192 LPPT-OMDB
Flight info
| Callsign | UAE192 |
|---|---|
| Flight time | N/A |
| Altitude | 34000 |
| Route | ORVED DCT RODAP DCT RAKOD DCT UREDI DCT NVS/N0477F330 DCT NANDO/N0477F340 T257 MABUX M871 LASPO Z224 NINES/N0477F330 DCT OLMIR DCT XARON DCT GENIO DCT LUXUR UM134 ANB UG6 DIMAO UL874 LOBNA/N0479F350 UL874 OMENI DCT BONAR M980 LOSUL M855 MMA N705 BOPIX N710 TAKRI M720 FYM M872 BDB Y214 SIKNU/N0483F370 Y214 RAPMA DCT KUVSO DCT KATIT DCT PEKEM M628 RIGIL G783 ELUDA/N0475F350 G783 ASPED Q308 KIPOK Q568 IMPED |
| Aircraft | B77W/H-SDE1E2E3FGHIJ2J3J4J5M1RWXY/LB1D1 |
Departure
| Time | N/A |
|---|---|
| Airport | Lisbon Humberto Delgado Airport (LPPT) |
Arrival
| Time | 2026-05-06 20:38 |
|---|---|
| Airport | Dubai International Airport (OMDB) |
| Time | Latitude | Longitude | Altitude | Speed | Heading |
|---|---|---|---|---|---|
| 2026-05-06 15:23 | 36.27639 | 9.16930 | 32927 ft | 533 kts | 103° |
| 2026-05-06 15:24 | 36.26790 | 9.22098 | 32922 ft | 531 kts | 104° |
| 2026-05-06 15:24 | 36.25138 | 9.32123 | 32925 ft | 530 kts | 103° |
| 2026-05-06 15:25 | 36.23869 | 9.42243 | 32922 ft | 531 kts | 99° |
| 2026-05-06 15:25 | 36.22702 | 9.52461 | 32929 ft | 533 kts | 99° |
| 2026-05-06 15:26 | 36.21500 | 9.62745 | 32941 ft | 527 kts | 99° |
| 2026-05-06 15:26 | 36.20273 | 9.73066 | 32937 ft | 531 kts | 100° |
| 2026-05-06 15:27 | 36.19112 | 9.82725 | 32921 ft | 528 kts | 100° |
| 2026-05-06 15:27 | 36.17898 | 9.92725 | 32934 ft | 527 kts | 100° |
| 2026-05-06 15:28 | 36.16656 | 10.02879 | 32925 ft | 527 kts | 100° |
| 2026-05-06 15:28 | 36.15362 | 10.12929 | 32932 ft | 526 kts | 104° |
| 2026-05-06 15:29 | 36.13092 | 10.22249 | 32916 ft | 523 kts | 110° |
| 2026-05-06 15:29 | 36.11832 | 10.26976 | 33046 ft | 530 kts | 110° |
| 2026-05-06 15:29 | 36.10550 | 10.31780 | 33630 ft | 528 kts | 110° |
| 2026-05-06 15:29 | 36.09293 | 10.36481 | 34203 ft | 525 kts | 111° |
| 2026-05-06 15:30 | 36.08154 | 10.41021 | 34526 ft | 528 kts | 105° |
| 2026-05-06 15:30 | 36.07457 | 10.45670 | 34809 ft | 531 kts | 97° |
| 2026-05-06 15:30 | 36.07200 | 10.50396 | 34918 ft | 536 kts | 92° |
| 2026-05-06 15:31 | 36.06934 | 10.59880 | 34917 ft | 535 kts | 92° |
| 2026-05-06 15:31 | 36.06670 | 10.69302 | 34891 ft | 535 kts | 92° |
| 2026-05-06 15:32 | 36.06255 | 10.83412 | 34886 ft | 534 kts | 92° |
| 2026-05-06 15:32 | 36.05970 | 10.92735 | 34888 ft | 536 kts | 92° |
| 2026-05-06 15:33 | 36.05673 | 11.02152 | 34899 ft | 539 kts | 92° |
| 2026-05-06 15:33 | 36.05376 | 11.11350 | 34905 ft | 535 kts | 92° |
| 2026-05-06 15:34 | 36.05050 | 11.21207 | 34897 ft | 533 kts | 92° |
| 2026-05-06 15:34 | 36.04715 | 11.31085 | 34907 ft | 536 kts | 92° |
| 2026-05-06 15:35 | 36.04377 | 11.40956 | 34902 ft | 536 kts | 92° |
| 2026-05-06 15:35 | 36.03910 | 11.50113 | 34891 ft | 535 kts | 99° |
| 2026-05-06 15:36 | 36.02243 | 11.59588 | 34920 ft | 535 kts | 104° |
| 2026-05-06 15:36 | 36.00504 | 11.68597 | 34906 ft | 534 kts | 105° |
| 2026-05-06 15:37 | 35.98736 | 11.77728 | 34895 ft | 533 kts | 105° |
| 2026-05-06 15:37 | 35.96963 | 11.86852 | 34919 ft | 535 kts | 105° |
| 2026-05-06 15:38 | 35.95165 | 11.96072 | 34909 ft | 536 kts | 105° |
| 2026-05-06 15:38 | 35.93308 | 12.05555 | 34901 ft | 532 kts | 105° |
| 2026-05-06 15:39 | 35.91371 | 12.15401 | 34911 ft | 538 kts | 105° |
| 2026-05-06 15:39 | 35.89491 | 12.24920 | 34908 ft | 537 kts | 105° |
| 2026-05-06 15:40 | 35.87523 | 12.34834 | 34908 ft | 533 kts | 105° |
| 2026-05-06 15:40 | 35.85493 | 12.45011 | 34908 ft | 539 kts | 105° |
| 2026-05-06 15:41 | 35.83503 | 12.54946 | 34920 ft | 536 kts | 105° |
| 2026-05-06 15:41 | 35.81543 | 12.64686 | 34918 ft | 537 kts | 105° |
| 2026-05-06 15:42 | 35.79584 | 12.74376 | 34909 ft | 541 kts | 105° |
| 2026-05-06 15:42 | 35.77694 | 12.83685 | 34901 ft | 536 kts | 105° |
| 2026-05-06 15:43 | 35.75773 | 12.93109 | 34908 ft | 538 kts | 105° |
| 2026-05-06 15:43 | 35.73759 | 13.02936 | 34904 ft | 544 kts | 106° |
| 2026-05-06 15:44 | 35.71668 | 13.13102 | 34915 ft | 540 kts | 105° |
| 2026-05-06 15:44 | 35.69563 | 13.23284 | 34935 ft | 544 kts | 105° |
| 2026-05-06 15:45 | 35.67445 | 13.33485 | 34923 ft | 544 kts | 105° |
| 2026-05-06 15:45 | 35.65330 | 13.43624 | 34936 ft | 541 kts | 105° |
| 2026-05-06 15:46 | 35.63239 | 13.53602 | 34935 ft | 545 kts | 105° |
| 2026-05-06 15:46 | 35.61126 | 13.63639 | 34939 ft | 541 kts | 105° |
| 2026-05-06 15:47 | 35.59029 | 13.73560 | 34939 ft | 543 kts | 106° |
| 2026-05-06 15:47 | 35.56898 | 13.83593 | 34919 ft | 544 kts | 105° |
| 2026-05-06 15:48 | 35.54673 | 13.94027 | 34935 ft | 545 kts | 106° |
| 2026-05-06 15:48 | 35.52469 | 14.04311 | 34940 ft | 547 kts | 106° |
| 2026-05-06 15:49 | 35.50284 | 14.14465 | 34947 ft | 542 kts | 105° |
| 2026-05-06 15:49 | 35.48108 | 14.24526 | 34950 ft | 548 kts | 106° |
| 2026-05-06 15:50 | 35.45896 | 14.34713 | 34990 ft | 550 kts | 105° |
| 2026-05-06 15:50 | 35.43658 | 14.44975 | 34961 ft | 544 kts | 105° |
| 2026-05-06 15:51 | 35.41417 | 14.55206 | 34969 ft | 548 kts | 105° |
| 2026-05-06 15:51 | 35.39189 | 14.65329 | 34978 ft | 551 kts | 106° |
| 2026-05-06 15:52 | 35.36890 | 14.75735 | 34969 ft | 555 kts | 105° |
| 2026-05-06 15:52 | 35.34607 | 14.86019 | 34977 ft | 550 kts | 106° |
| 2026-05-06 15:53 | 35.32360 | 14.96097 | 34978 ft | 551 kts | 105° |
| 2026-05-06 15:53 | 35.30085 | 15.06256 | 35013 ft | 553 kts | 105° |
| 2026-05-06 15:54 | 35.27826 | 15.16301 | 34983 ft | 554 kts | 105° |
| 2026-05-06 15:54 | 35.25521 | 15.26509 | 35002 ft | 556 kts | 105° |
| 2026-05-06 15:55 | 35.23228 | 15.36619 | 35004 ft | 559 kts | 104° |
| 2026-05-06 15:55 | 35.20863 | 15.47004 | 35006 ft | 554 kts | 104° |
| 2026-05-06 15:56 | 35.18502 | 15.57329 | 35001 ft | 557 kts | 104° |
| 2026-05-06 15:56 | 35.16106 | 15.67757 | 35003 ft | 561 kts | 105° |
| 2026-05-06 15:57 | 35.13716 | 15.78114 | 35001 ft | 557 kts | 105° |
| 2026-05-06 15:57 | 35.11309 | 15.88501 | 34993 ft | 559 kts | 105° |
| 2026-05-06 15:58 | 35.08875 | 15.98961 | 35015 ft | 561 kts | 105° |
| 2026-05-06 15:58 | 35.06435 | 16.09399 | 35031 ft | 562 kts | 104° |
| 2026-05-06 15:59 | 35.04062 | 16.19515 | 35021 ft | 553 kts | 105° |
| 2026-05-06 15:59 | 35.01649 | 16.29754 | 35034 ft | 561 kts | 105° |
| 2026-05-06 16:00 | 34.99240 | 16.39931 | 35032 ft | 552 kts | 105° |
| 2026-05-06 16:00 | 34.96792 | 16.50236 | 35039 ft | 551 kts | 105° |
| 2026-05-06 16:01 | 34.94311 | 16.60633 | 35043 ft | 551 kts | 105° |
| 2026-05-06 16:01 | 34.91869 | 16.70827 | 35031 ft | 553 kts | 105° |
| 2026-05-06 16:02 | 34.89440 | 16.80921 | 35034 ft | 542 kts | 106° |
| 2026-05-06 16:02 | 34.86941 | 16.91266 | 35039 ft | 549 kts | 105° |
| 2026-05-06 16:03 | 34.84489 | 17.01380 | 35047 ft | 545 kts | 106° |
| 2026-05-06 16:03 | 34.82064 | 17.11338 | 35056 ft | 541 kts | 105° |
| 2026-05-06 16:04 | 34.79667 | 17.21141 | 35060 ft | 542 kts | 105° |
| 2026-05-06 16:04 | 34.77204 | 17.31179 | 35057 ft | 542 kts | 105° |
| 2026-05-06 16:05 | 34.74718 | 17.41269 | 35068 ft | 538 kts | 105° |
| 2026-05-06 16:05 | 34.72213 | 17.51397 | 35073 ft | 541 kts | 106° |
| 2026-05-06 16:06 | 34.69711 | 17.61474 | 35071 ft | 538 kts | 105° |
| 2026-05-06 16:06 | 34.67224 | 17.71448 | 35071 ft | 535 kts | 107° |
| 2026-05-06 16:07 | 34.64804 | 17.81119 | 35080 ft | 538 kts | 107° |
| 2026-05-06 16:07 | 34.62387 | 17.90744 | 35078 ft | 536 kts | 107° |
| 2026-05-06 16:08 | 34.59923 | 18.00514 | 35089 ft | 532 kts | 107° |
| 2026-05-06 16:08 | 34.57468 | 18.10216 | 35092 ft | 534 kts | 107° |
| 2026-05-06 16:09 | 34.55032 | 18.19806 | 35078 ft | 533 kts | 106° |
| 2026-05-06 16:09 | 34.52589 | 18.29390 | 35087 ft | 529 kts | 107° |
| 2026-05-06 16:10 | 34.50170 | 18.38844 | 35088 ft | 532 kts | 106° |
| 2026-05-06 16:10 | 34.47725 | 18.48364 | 35086 ft | 527 kts | 107° |
| 2026-05-06 16:11 | 34.45257 | 18.57944 | 35098 ft | 528 kts | 107° |
| 2026-05-06 16:11 | 34.42819 | 18.67369 | 35091 ft | 529 kts | 107° |
| 2026-05-06 16:12 | 34.40303 | 18.77061 | 35095 ft | 525 kts | 107° |
| 2026-05-06 16:12 | 34.37858 | 18.86450 | 35091 ft | 521 kts | 107° |
| 2026-05-06 16:13 | 34.35370 | 18.95964 | 35093 ft | 523 kts | 107° |
| 2026-05-06 16:13 | 34.32884 | 19.04444 | 35094 ft | 520 kts | 115° |
| 2026-05-06 16:14 | 34.29720 | 19.12586 | 35096 ft | 520 kts | 116° |
| 2026-05-06 16:14 | 34.26623 | 19.20426 | 35102 ft | 521 kts | 116° |
| 2026-05-06 16:15 | 34.23481 | 19.28322 | 35101 ft | 519 kts | 116° |
| 2026-05-06 16:15 | 34.20254 | 19.36387 | 35097 ft | 520 kts | 116° |
| 2026-05-06 16:16 | 34.17070 | 19.44314 | 35098 ft | 520 kts | 116° |
| 2026-05-06 16:16 | 34.13803 | 19.52423 | 35110 ft | 522 kts | 116° |
| 2026-05-06 16:17 | 34.10553 | 19.60465 | 35099 ft | 519 kts | 116° |
| 2026-05-06 16:17 | 34.07305 | 19.68481 | 35094 ft | 518 kts | 117° |
| 2026-05-06 16:18 | 34.03936 | 19.76774 | 35089 ft | 519 kts | 116° |
| 2026-05-06 16:18 | 34.00423 | 19.85400 | 35098 ft | 518 kts | 117° |
| 2026-05-06 16:19 | 33.98687 | 19.89657 | 34946 ft | 518 kts | 116° |
| 2026-05-06 16:19 | 33.96985 | 19.93822 | 35086 ft | 519 kts | 116° |
| 2026-05-06 16:19 | 33.93505 | 20.02325 | 35092 ft | 517 kts | 117° |
| 2026-05-06 16:20 | 33.90004 | 20.10856 | 35098 ft | 517 kts | 117° |
| 2026-05-06 16:20 | 33.86563 | 20.19220 | 35095 ft | 517 kts | 116° |
| 2026-05-06 16:21 | 33.83013 | 20.27828 | 35101 ft | 518 kts | 116° |
| 2026-05-06 16:21 | 33.79485 | 20.36364 | 35100 ft | 516 kts | 116° |
| 2026-05-06 16:22 | 33.75926 | 20.44951 | 35106 ft | 517 kts | 116° |
| 2026-05-06 16:22 | 33.72396 | 20.53447 | 35108 ft | 515 kts | 116° |
| 2026-05-06 16:23 | 33.68807 | 20.62063 | 35108 ft | 515 kts | 116° |
| 2026-05-06 16:23 | 33.65170 | 20.70772 | 35108 ft | 515 kts | 117° |
| 2026-05-06 16:24 | 33.61613 | 20.79270 | 35098 ft | 514 kts | 117° |
| 2026-05-06 16:24 | 33.57964 | 20.87965 | 35103 ft | 514 kts | 117° |
| 2026-05-06 16:25 | 33.54336 | 20.96590 | 35110 ft | 513 kts | 117° |
| 2026-05-06 16:25 | 33.50646 | 21.05341 | 35107 ft | 513 kts | 117° |
| 2026-05-06 16:26 | 33.46934 | 21.14134 | 35104 ft | 513 kts | 116° |
| 2026-05-06 16:26 | 33.43252 | 21.22831 | 35101 ft | 513 kts | 117° |
| 2026-05-06 16:27 | 33.39535 | 21.31589 | 35106 ft | 511 kts | 116° |
| 2026-05-06 16:27 | 33.35847 | 21.40260 | 35105 ft | 511 kts | 117° |
| 2026-05-06 16:28 | 33.32159 | 21.48905 | 35108 ft | 510 kts | 117° |
| 2026-05-06 16:28 | 33.28445 | 21.57592 | 35108 ft | 510 kts | 117° |
| 2026-05-06 16:29 | 33.24781 | 21.66142 | 35104 ft | 510 kts | 117° |
| 2026-05-06 16:29 | 33.21010 | 21.74918 | 35101 ft | 509 kts | 117° |
| 2026-05-06 16:30 | 33.18525 | 21.80688 | 35099 ft | 509 kts | 117° |
| 2026-05-06 16:30 | 33.13714 | 21.91835 | 35099 ft | 509 kts | 117° |
| 2026-05-06 16:31 | 33.09983 | 22.00456 | 35100 ft | 507 kts | 117° |
| 2026-05-06 16:31 | 33.06320 | 22.08899 | 35099 ft | 508 kts | 117° |
| 2026-05-06 16:32 | 33.02584 | 22.17490 | 35102 ft | 507 kts | 117° |
| 2026-05-06 16:32 | 32.98826 | 22.26110 | 35105 ft | 509 kts | 117° |
| 2026-05-06 16:33 | 32.95109 | 22.34615 | 35106 ft | 508 kts | 117° |
| 2026-05-06 16:34 | 32.89475 | 22.47468 | 35111 ft | 509 kts | 117° |
| 2026-05-06 16:34 | 32.85706 | 22.56042 | 35112 ft | 508 kts | 117° |
| 2026-05-06 16:35 | 32.81969 | 22.64522 | 35105 ft | 509 kts | 117° |
| 2026-05-06 16:35 | 32.78138 | 22.73194 | 35106 ft | 509 kts | 118° |
| 2026-05-06 16:36 | 32.74320 | 22.81816 | 35102 ft | 508 kts | 118° |
| 2026-05-06 16:36 | 32.70562 | 22.90283 | 35102 ft | 509 kts | 118° |
| 2026-05-06 16:37 | 32.66775 | 22.98793 | 35109 ft | 509 kts | 118° |
| 2026-05-06 16:37 | 32.62982 | 23.07300 | 35106 ft | 508 kts | 118° |
| 2026-05-06 16:38 | 32.59218 | 23.15720 | 35108 ft | 509 kts | 118° |
| 2026-05-06 16:38 | 32.55387 | 23.24268 | 35110 ft | 508 kts | 118° |
| 2026-05-06 16:39 | 32.51639 | 23.32614 | 35114 ft | 509 kts | 118° |
| 2026-05-06 16:39 | 32.47839 | 23.41056 | 35112 ft | 509 kts | 118° |
| 2026-05-06 16:40 | 32.44043 | 23.49470 | 35116 ft | 510 kts | 118° |
| 2026-05-06 16:40 | 32.40236 | 23.57887 | 35114 ft | 509 kts | 118° |
| 2026-05-06 16:41 | 32.36521 | 23.66082 | 35113 ft | 509 kts | 119° |
| 2026-05-06 16:41 | 32.32737 | 23.74412 | 35112 ft | 509 kts | 119° |
| 2026-05-06 16:42 | 32.28990 | 23.82640 | 35110 ft | 510 kts | 119° |
| 2026-05-06 16:42 | 32.25209 | 23.90924 | 35113 ft | 510 kts | 119° |
| 2026-05-06 16:43 | 32.21456 | 23.99130 | 35115 ft | 510 kts | 119° |
| 2026-05-06 16:43 | 32.17682 | 24.07363 | 35117 ft | 511 kts | 119° |
| 2026-05-06 16:44 | 32.13954 | 24.15475 | 35122 ft | 511 kts | 119° |
| 2026-05-06 16:44 | 32.10228 | 24.23569 | 35118 ft | 511 kts | 119° |
| 2026-05-06 16:45 | 32.06517 | 24.31609 | 35118 ft | 512 kts | 119° |
| 2026-05-06 16:45 | 32.02793 | 24.39663 | 35120 ft | 511 kts | 119° |
| 2026-05-06 16:46 | 31.99038 | 24.47763 | 35120 ft | 511 kts | 119° |
| 2026-05-06 16:46 | 31.95266 | 24.55883 | 35121 ft | 512 kts | 119° |
| 2026-05-06 16:47 | 31.91493 | 24.63990 | 35125 ft | 511 kts | 119° |
| 2026-05-06 16:47 | 31.87696 | 24.72127 | 35118 ft | 511 kts | 120° |
| 2026-05-06 16:48 | 31.83888 | 24.80272 | 35114 ft | 511 kts | 120° |
| 2026-05-06 16:48 | 31.80031 | 24.88504 | 35120 ft | 511 kts | 120° |
| 2026-05-06 16:49 | 31.76234 | 24.96588 | 35117 ft | 511 kts | 120° |
| 2026-05-06 16:49 | 31.72422 | 25.04687 | 35121 ft | 511 kts | 120° |
| 2026-05-06 16:50 | 31.68863 | 25.12869 | 35123 ft | 512 kts | 110° |
| 2026-05-06 16:50 | 31.67175 | 25.21874 | 35120 ft | 513 kts | 97° |
| 2026-05-06 16:51 | 31.66160 | 25.30778 | 35115 ft | 513 kts | 97° |
| 2026-05-06 16:51 | 31.65124 | 25.39586 | 35112 ft | 513 kts | 97° |
| 2026-05-06 16:52 | 31.64066 | 25.48369 | 35115 ft | 513 kts | 97° |
| 2026-05-06 16:52 | 31.62993 | 25.57167 | 35113 ft | 512 kts | 97° |
| 2026-05-06 16:53 | 31.61925 | 25.65826 | 35112 ft | 513 kts | 98° |
| 2026-05-06 16:53 | 31.60821 | 25.74700 | 35107 ft | 513 kts | 98° |
| 2026-05-06 16:54 | 31.59713 | 25.83550 | 35114 ft | 513 kts | 98° |
| 2026-05-06 16:54 | 31.58608 | 25.92324 | 35109 ft | 513 kts | 98° |
| 2026-05-06 16:55 | 31.57444 | 26.01043 | 35100 ft | 514 kts | 102° |
| 2026-05-06 16:55 | 31.55714 | 26.09626 | 35114 ft | 514 kts | 103° |
| 2026-05-06 16:56 | 31.53952 | 26.18146 | 35114 ft | 514 kts | 103° |
| 2026-05-06 16:56 | 31.52190 | 26.26653 | 35103 ft | 514 kts | 103° |
| 2026-05-06 16:57 | 31.50411 | 26.35215 | 35111 ft | 514 kts | 103° |
| 2026-05-06 16:57 | 31.48621 | 26.43802 | 35117 ft | 515 kts | 103° |
| 2026-05-06 16:58 | 31.46828 | 26.52373 | 35105 ft | 515 kts | 103° |
| 2026-05-06 16:58 | 31.45027 | 26.60957 | 35109 ft | 516 kts | 103° |
| 2026-05-06 16:59 | 31.43205 | 26.69607 | 35108 ft | 516 kts | 104° |
| 2026-05-06 16:59 | 31.41375 | 26.78269 | 35106 ft | 515 kts | 104° |
| 2026-05-06 17:00 | 31.39530 | 26.86967 | 35113 ft | 516 kts | 104° |
| 2026-05-06 17:00 | 31.37685 | 26.95631 | 35118 ft | 516 kts | 104° |
| 2026-05-06 17:01 | 31.35818 | 27.04374 | 35124 ft | 516 kts | 104° |
| 2026-05-06 17:01 | 31.33641 | 27.12975 | 35113 ft | 516 kts | 114° |
| 2026-05-06 17:02 | 31.29663 | 27.20447 | 35120 ft | 512 kts | 133° |
| 2026-05-06 17:02 | 31.24117 | 27.26082 | 35113 ft | 504 kts | 151° |
| 2026-05-06 17:03 | 31.17674 | 27.29937 | 35114 ft | 501 kts | 158° |
| 2026-05-06 17:03 | 31.11178 | 27.33494 | 35114 ft | 500 kts | 158° |
| 2026-05-06 17:04 | 31.04748 | 27.36993 | 35120 ft | 500 kts | 158° |
| 2026-05-06 17:04 | 30.98283 | 27.40496 | 35112 ft | 500 kts | 158° |
| 2026-05-06 17:05 | 30.92097 | 27.44402 | 35116 ft | 507 kts | 146° |
| 2026-05-06 17:05 | 30.86430 | 27.49576 | 35110 ft | 509 kts | 144° |
| 2026-05-06 17:06 | 30.80782 | 27.54820 | 35113 ft | 508 kts | 144° |
| 2026-05-06 17:06 | 30.75119 | 27.60065 | 35111 ft | 509 kts | 144° |
| 2026-05-06 17:07 | 30.69468 | 27.65291 | 35109 ft | 510 kts | 144° |
| 2026-05-06 17:07 | 30.63763 | 27.70557 | 35099 ft | 509 kts | 144° |
| 2026-05-06 17:08 | 30.58083 | 27.75790 | 35098 ft | 510 kts | 144° |
| 2026-05-06 17:08 | 30.52396 | 27.81023 | 35098 ft | 509 kts | 144° |
| 2026-05-06 17:09 | 30.46711 | 27.86245 | 35097 ft | 510 kts | 145° |
| 2026-05-06 17:09 | 30.40968 | 27.91513 | 35087 ft | 510 kts | 145° |
| 2026-05-06 17:10 | 30.35191 | 27.96802 | 35085 ft | 511 kts | 145° |
| 2026-05-06 17:10 | 30.29473 | 28.02031 | 35081 ft | 510 kts | 144° |
| 2026-05-06 17:11 | 30.23732 | 28.07272 | 35073 ft | 510 kts | 145° |
| 2026-05-06 17:11 | 30.17924 | 28.12566 | 35070 ft | 511 kts | 145° |
| 2026-05-06 17:12 | 30.12185 | 28.17789 | 35069 ft | 510 kts | 145° |
| 2026-05-06 17:12 | 30.06423 | 28.23025 | 35072 ft | 511 kts | 145° |
| 2026-05-06 17:13 | 30.00683 | 28.28233 | 35246 ft | 511 kts | 145° |
| 2026-05-06 17:13 | 29.97781 | 28.30864 | 35086 ft | 511 kts | 145° |
| 2026-05-06 17:13 | 29.94920 | 28.33456 | 35109 ft | 507 kts | 145° |
| 2026-05-06 17:14 | 29.89134 | 28.38689 | 35077 ft | 510 kts | 145° |
| 2026-05-06 17:14 | 29.84056 | 28.44705 | 35090 ft | 518 kts | 130° |
| 2026-05-06 17:15 | 29.79464 | 28.51566 | 35081 ft | 518 kts | 130° |
| 2026-05-06 17:15 | 29.74891 | 28.58407 | 35082 ft | 519 kts | 130° |
| 2026-05-06 17:16 | 29.70335 | 28.65204 | 35087 ft | 519 kts | 130° |
| 2026-05-06 17:16 | 29.65725 | 28.72066 | 35074 ft | 519 kts | 130° |
| 2026-05-06 17:17 | 29.61177 | 28.78825 | 35076 ft | 519 kts | 130° |
| 2026-05-06 17:17 | 29.56580 | 28.85647 | 35075 ft | 520 kts | 130° |
| 2026-05-06 17:18 | 29.52013 | 28.92412 | 35072 ft | 520 kts | 130° |
| 2026-05-06 17:18 | 29.47446 | 28.99166 | 35074 ft | 520 kts | 131° |
| 2026-05-06 17:19 | 29.43634 | 29.06438 | 35074 ft | 526 kts | 113° |
| 2026-05-06 17:19 | 29.41800 | 29.14768 | 35076 ft | 529 kts | 95° |
| 2026-05-06 17:20 | 29.41574 | 29.23343 | 35072 ft | 529 kts | 90° |
| 2026-05-06 17:20 | 29.41479 | 29.31963 | 35072 ft | 530 kts | 90° |
| 2026-05-06 17:21 | 29.41376 | 29.40555 | 35069 ft | 530 kts | 90° |
| 2026-05-06 17:21 | 29.41266 | 29.49171 | 35070 ft | 529 kts | 90° |
| 2026-05-06 17:22 | 29.41149 | 29.57733 | 35071 ft | 530 kts | 90° |
| 2026-05-06 17:22 | 29.41026 | 29.66361 | 35070 ft | 530 kts | 90° |
| 2026-05-06 17:23 | 29.40898 | 29.74965 | 35058 ft | 530 kts | 90° |
| 2026-05-06 17:23 | 29.40763 | 29.83631 | 35061 ft | 531 kts | 90° |
| 2026-05-06 17:24 | 29.40623 | 29.92248 | 35058 ft | 530 kts | 90° |
| 2026-05-06 17:24 | 29.40477 | 30.00899 | 35057 ft | 530 kts | 90° |
| 2026-05-06 17:25 | 29.40326 | 30.09501 | 35052 ft | 530 kts | 90° |
| 2026-05-06 17:25 | 29.40166 | 30.18258 | 35055 ft | 531 kts | 90° |
| 2026-05-06 17:26 | 29.39999 | 30.27126 | 35051 ft | 530 kts | 91° |
| 2026-05-06 17:26 | 29.38791 | 30.35736 | 35038 ft | 529 kts | 109° |
| 2026-05-06 17:27 | 29.35424 | 30.43692 | 35026 ft | 524 kts | 127° |
| 2026-05-06 17:27 | 29.30432 | 30.50339 | 35033 ft | 519 kts | 136° |
| 2026-05-06 17:28 | 29.25277 | 30.56536 | 35028 ft | 519 kts | 137° |
| 2026-05-06 17:28 | 29.20014 | 30.62825 | 35026 ft | 519 kts | 137° |
| 2026-05-06 17:29 | 29.14702 | 30.69151 | 35021 ft | 519 kts | 138° |
| 2026-05-06 17:29 | 29.09420 | 30.75424 | 35022 ft | 519 kts | 137° |
| 2026-05-06 17:30 | 29.04157 | 30.81660 | 35028 ft | 521 kts | 137° |
| 2026-05-06 17:30 | 28.98927 | 30.87847 | 35021 ft | 520 kts | 138° |
| 2026-05-06 17:31 | 28.93576 | 30.94165 | 35022 ft | 520 kts | 137° |
| 2026-05-06 17:31 | 28.88356 | 31.00318 | 35021 ft | 521 kts | 138° |
| 2026-05-06 17:32 | 28.83262 | 31.06315 | 35023 ft | 521 kts | 138° |
| 2026-05-06 17:32 | 28.78125 | 31.12352 | 35026 ft | 520 kts | 138° |
| 2026-05-06 17:33 | 28.73017 | 31.18346 | 35029 ft | 521 kts | 138° |
| 2026-05-06 17:33 | 28.67936 | 31.24386 | 35034 ft | 521 kts | 135° |
| 2026-05-06 17:34 | 28.63025 | 31.30610 | 35034 ft | 522 kts | 135° |
| 2026-05-06 17:34 | 28.58110 | 31.36827 | 35036 ft | 523 kts | 135° |
| 2026-05-06 17:35 | 28.53066 | 31.43183 | 35040 ft | 522 kts | 135° |
| 2026-05-06 17:35 | 28.48009 | 31.49537 | 35042 ft | 522 kts | 135° |
| 2026-05-06 17:36 | 28.40337 | 31.59151 | 35047 ft | 522 kts | 135° |
| 2026-05-06 17:36 | 28.35274 | 31.65481 | 35047 ft | 523 kts | 136° |
| 2026-05-06 17:37 | 28.30148 | 31.71879 | 35039 ft | 522 kts | 136° |
| 2026-05-06 17:37 | 28.24969 | 31.78332 | 35042 ft | 523 kts | 136° |
| 2026-05-06 17:38 | 28.19834 | 31.84720 | 35045 ft | 523 kts | 136° |
| 2026-05-06 17:38 | 28.14742 | 31.91047 | 35047 ft | 522 kts | 136° |
| 2026-05-06 17:39 | 28.09628 | 31.97388 | 35052 ft | 524 kts | 136° |
| 2026-05-06 17:39 | 28.04559 | 32.03734 | 35052 ft | 525 kts | 132° |
| 2026-05-06 17:40 | 28.00494 | 32.11057 | 35066 ft | 531 kts | 121° |
| 2026-05-06 17:40 | 27.96772 | 32.18800 | 35066 ft | 530 kts | 121° |
| 2026-05-06 17:41 | 27.93086 | 32.26455 | 35066 ft | 531 kts | 121° |
| 2026-05-06 17:41 | 27.89536 | 32.33809 | 35065 ft | 532 kts | 121° |
| 2026-05-06 17:42 | 27.85888 | 32.41350 | 35059 ft | 531 kts | 121° |
| 2026-05-06 17:42 | 27.82291 | 32.48772 | 35052 ft | 531 kts | 121° |
| 2026-05-06 17:43 | 27.78520 | 32.56535 | 35047 ft | 530 kts | 121° |
| 2026-05-06 17:43 | 27.74842 | 32.64093 | 35041 ft | 530 kts | 121° |
| 2026-05-06 17:44 | 27.71192 | 32.71581 | 35029 ft | 530 kts | 122° |
| 2026-05-06 17:44 | 27.67629 | 32.78876 | 35024 ft | 530 kts | 122° |
| 2026-05-06 17:45 | 27.64005 | 32.86284 | 35023 ft | 532 kts | 122° |
| 2026-05-06 17:45 | 27.60335 | 32.93774 | 35019 ft | 530 kts | 122° |
| 2026-05-06 17:46 | 27.56519 | 33.01546 | 35029 ft | 531 kts | 122° |
| 2026-05-06 17:46 | 27.52607 | 33.09501 | 35020 ft | 529 kts | 122° |
| 2026-05-06 17:47 | 27.48773 | 33.17280 | 35006 ft | 530 kts | 122° |
| 2026-05-06 17:47 | 27.45040 | 33.24842 | 34995 ft | 530 kts | 122° |
| 2026-05-06 17:48 | 27.41206 | 33.32594 | 34985 ft | 529 kts | 122° |
| 2026-05-06 17:48 | 27.37407 | 33.40261 | 34980 ft | 529 kts | 122° |
| 2026-05-06 17:49 | 27.33630 | 33.47870 | 34975 ft | 530 kts | 122° |
| 2026-05-06 17:49 | 27.29798 | 33.55574 | 34968 ft | 529 kts | 122° |
| 2026-05-06 17:50 | 27.25956 | 33.63286 | 34974 ft | 530 kts | 122° |
| 2026-05-06 17:50 | 27.22052 | 33.71108 | 34956 ft | 529 kts | 122° |
| 2026-05-06 17:51 | 27.18159 | 33.78951 | 34952 ft | 531 kts | 119° |
| 2026-05-06 17:51 | 27.15009 | 33.87408 | 34962 ft | 534 kts | 114° |
| 2026-05-06 17:52 | 27.11919 | 33.96127 | 34946 ft | 533 kts | 114° |
| 2026-05-06 17:52 | 27.08931 | 34.04528 | 34943 ft | 532 kts | 114° |
| 2026-05-06 17:53 | 27.05948 | 34.12887 | 34933 ft | 534 kts | 114° |
| 2026-05-06 17:53 | 27.02955 | 34.21255 | 34933 ft | 534 kts | 114° |
| 2026-05-06 17:54 | 26.99917 | 34.29728 | 34923 ft | 534 kts | 115° |
| 2026-05-06 17:54 | 26.96917 | 34.38070 | 34926 ft | 533 kts | 115° |
| 2026-05-06 17:55 | 26.93889 | 34.46474 | 34933 ft | 532 kts | 115° |
| 2026-05-06 17:55 | 26.90842 | 34.54913 | 34933 ft | 533 kts | 115° |
| 2026-05-06 17:56 | 26.87817 | 34.63269 | 34936 ft | 532 kts | 115° |
| 2026-05-06 17:56 | 26.84761 | 34.71695 | 34932 ft | 532 kts | 116° |
| 2026-05-06 17:57 | 26.81731 | 34.80032 | 34928 ft | 533 kts | 116° |
| 2026-05-06 17:57 | 26.78686 | 34.88390 | 34923 ft | 533 kts | 116° |
| 2026-05-06 17:58 | 26.75647 | 34.96717 | 34934 ft | 532 kts | 116° |
| 2026-05-06 17:58 | 26.72593 | 35.05071 | 34928 ft | 533 kts | 116° |
| 2026-05-06 17:59 | 26.69493 | 35.13537 | 34933 ft | 532 kts | 116° |
| 2026-05-06 17:59 | 26.66416 | 35.21921 | 34931 ft | 531 kts | 116° |
| 2026-05-06 18:00 | 26.63277 | 35.30451 | 34927 ft | 532 kts | 116° |
| 2026-05-06 18:00 | 26.60090 | 35.39097 | 34925 ft | 532 kts | 116° |
| 2026-05-06 18:01 | 26.56930 | 35.47648 | 34930 ft | 533 kts | 116° |
| 2026-05-06 18:01 | 26.53671 | 35.56259 | 34930 ft | 531 kts | 117° |
| 2026-05-06 18:02 | 26.50363 | 35.64904 | 34928 ft | 531 kts | 117° |
| 2026-05-06 18:02 | 26.47094 | 35.73436 | 34909 ft | 532 kts | 118° |
| 2026-05-06 18:03 | 26.43797 | 35.82029 | 34905 ft | 530 kts | 118° |
| 2026-05-06 18:03 | 26.40487 | 35.90639 | 34912 ft | 530 kts | 118° |
| 2026-05-06 18:04 | 26.37212 | 35.99141 | 34906 ft | 530 kts | 118° |
| 2026-05-06 18:04 | 26.33931 | 36.07641 | 34909 ft | 530 kts | 118° |
| 2026-05-06 18:05 | 26.30711 | 36.15968 | 34906 ft | 529 kts | 118° |
| 2026-05-06 18:05 | 26.27622 | 36.23939 | 34900 ft | 529 kts | 118° |
| 2026-05-06 18:06 | 26.24515 | 36.31941 | 34910 ft | 530 kts | 118° |
| 2026-05-06 18:06 | 26.21431 | 36.39866 | 34908 ft | 530 kts | 118° |
| 2026-05-06 18:07 | 26.18321 | 36.47831 | 34909 ft | 529 kts | 120° |
| 2026-05-06 18:07 | 26.14712 | 36.55413 | 34909 ft | 524 kts | 124° |
| 2026-05-06 18:08 | 26.11114 | 36.62707 | 34907 ft | 524 kts | 124° |
| 2026-05-06 18:08 | 26.07509 | 36.70010 | 34887 ft | 521 kts | 125° |
| 2026-05-06 18:09 | 26.03979 | 36.77152 | 34885 ft | 523 kts | 125° |
| 2026-05-06 18:09 | 26.00437 | 36.84306 | 34874 ft | 522 kts | 126° |
| 2026-05-06 18:10 | 25.96916 | 36.91410 | 34876 ft | 522 kts | 125° |
| 2026-05-06 18:10 | 25.93385 | 36.98523 | 34881 ft | 520 kts | 125° |
| 2026-05-06 18:11 | 25.90438 | 37.04449 | 34882 ft | 523 kts | 125° |
| 2026-05-06 18:11 | 25.86279 | 37.12802 | 34899 ft | 521 kts | 126° |
| 2026-05-06 18:12 | 25.82764 | 37.19850 | 34902 ft | 522 kts | 126° |
| 2026-05-06 18:12 | 25.79214 | 37.26964 | 34911 ft | 520 kts | 126° |
| 2026-05-06 18:13 | 25.75644 | 37.34142 | 34917 ft | 520 kts | 126° |
| 2026-05-06 18:13 | 25.72111 | 37.41235 | 34921 ft | 521 kts | 126° |
| 2026-05-06 18:14 | 25.68549 | 37.48374 | 34928 ft | 521 kts | 126° |
| 2026-05-06 18:14 | 25.64975 | 37.55525 | 34939 ft | 522 kts | 126° |
| 2026-05-06 18:15 | 25.61423 | 37.62624 | 34945 ft | 521 kts | 126° |
| 2026-05-06 18:15 | 25.57871 | 37.69708 | 34943 ft | 521 kts | 126° |
| 2026-05-06 18:16 | 25.54284 | 37.76850 | 34946 ft | 523 kts | 126° |
| 2026-05-06 18:16 | 25.50751 | 37.83878 | 34946 ft | 520 kts | 126° |
| 2026-05-06 18:17 | 25.47165 | 37.90993 | 34960 ft | 524 kts | 126° |
| 2026-05-06 18:17 | 25.43601 | 37.98060 | 34968 ft | 522 kts | 127° |
| 2026-05-06 18:18 | 25.40029 | 38.05132 | 34970 ft | 521 kts | 127° |
| 2026-05-06 18:18 | 25.36458 | 38.12187 | 34968 ft | 521 kts | 126° |
| 2026-05-06 18:19 | 25.32876 | 38.19255 | 34970 ft | 521 kts | 127° |
| 2026-05-06 18:19 | 25.29323 | 38.26255 | 34963 ft | 521 kts | 127° |
| 2026-05-06 18:20 | 25.26321 | 38.32161 | 34960 ft | 519 kts | 127° |
| 2026-05-06 18:20 | 25.22184 | 38.40289 | 34960 ft | 518 kts | 127° |
| 2026-05-06 18:21 | 25.18614 | 38.47290 | 34958 ft | 519 kts | 127° |
| 2026-05-06 18:21 | 25.15017 | 38.54328 | 34968 ft | 521 kts | 127° |
| 2026-05-06 18:22 | 25.11427 | 38.61334 | 34988 ft | 523 kts | 127° |
| 2026-05-06 18:22 | 25.07865 | 38.68282 | 34994 ft | 518 kts | 127° |
| 2026-05-06 18:23 | 25.04311 | 38.75200 | 35022 ft | 516 kts | 127° |
| 2026-05-06 18:23 | 25.00730 | 38.82155 | 35012 ft | 521 kts | 127° |
| 2026-05-06 18:24 | 24.97141 | 38.89120 | 34982 ft | 521 kts | 127° |
| 2026-05-06 18:24 | 24.94146 | 38.94924 | 34950 ft | 518 kts | 127° |
| 2026-05-06 18:25 | 24.89957 | 39.03021 | 34926 ft | 516 kts | 128° |
| 2026-05-06 18:25 | 24.86338 | 39.09998 | 34953 ft | 522 kts | 128° |
| 2026-05-06 18:26 | 24.82694 | 39.17023 | 34958 ft | 519 kts | 127° |
| 2026-05-06 18:26 | 24.79111 | 39.23919 | 34954 ft | 518 kts | 127° |
| 2026-05-06 18:27 | 24.75478 | 39.30899 | 34969 ft | 520 kts | 127° |
| 2026-05-06 18:27 | 24.71803 | 39.37953 | 35009 ft | 520 kts | 127° |
| 2026-05-06 18:28 | 24.68194 | 39.44868 | 35026 ft | 521 kts | 128° |
| 2026-05-06 18:28 | 24.64546 | 39.51848 | 35048 ft | 522 kts | 128° |
| 2026-05-06 18:29 | 24.61514 | 39.57645 | 35032 ft | 518 kts | 128° |
| 2026-05-06 18:29 | 24.57278 | 39.65738 | 35006 ft | 523 kts | 127° |
| 2026-05-06 18:30 | 24.54653 | 39.73459 | 34999 ft | 542 kts | 108° |
| 2026-05-06 18:30 | 24.53652 | 39.81959 | 34999 ft | 547 kts | 102° |
| 2026-05-06 18:31 | 24.52787 | 39.91011 | 35011 ft | 549 kts | 101° |
| 2026-05-06 18:31 | 24.51919 | 40.00039 | 35019 ft | 548 kts | 102° |
| 2026-05-06 18:32 | 24.51056 | 40.08932 | 35028 ft | 548 kts | 102° |
| 2026-05-06 18:32 | 24.50169 | 40.17994 | 35034 ft | 552 kts | 102° |
| 2026-05-06 18:33 | 24.49289 | 40.26938 | 35043 ft | 547 kts | 102° |
| 2026-05-06 18:33 | 24.48402 | 40.35874 | 35038 ft | 551 kts | 102° |
| 2026-05-06 18:34 | 24.47502 | 40.44906 | 35033 ft | 549 kts | 102° |
| 2026-05-06 18:34 | 24.46623 | 40.53678 | 35042 ft | 548 kts | 101° |
| 2026-05-06 18:35 | 24.45727 | 40.62554 | 35038 ft | 548 kts | 101° |
| 2026-05-06 18:35 | 24.44958 | 40.70109 | 35019 ft | 549 kts | 102° |
| 2026-05-06 18:36 | 24.43886 | 40.80597 | 35023 ft | 546 kts | 102° |
| 2026-05-06 18:36 | 24.42952 | 40.89652 | 35034 ft | 550 kts | 102° |
| 2026-05-06 18:37 | 24.42182 | 40.97102 | 35041 ft | 548 kts | 102° |
| 2026-05-06 18:37 | 24.41085 | 41.07634 | 35053 ft | 547 kts | 102° |
| 2026-05-06 18:38 | 24.40140 | 41.16666 | 35057 ft | 547 kts | 102° |
| 2026-05-06 18:38 | 24.39346 | 41.24218 | 35060 ft | 547 kts | 102° |
| 2026-05-06 18:39 | 24.38236 | 41.34711 | 35059 ft | 548 kts | 102° |
| 2026-05-06 18:40 | 24.36801 | 41.48174 | 35071 ft | 546 kts | 102° |
| 2026-05-06 18:40 | 24.36016 | 41.55494 | 35078 ft | 549 kts | 102° |
| 2026-05-06 18:41 | 24.34905 | 41.65797 | 35074 ft | 546 kts | 102° |
| 2026-05-06 18:41 | 24.33940 | 41.74682 | 35052 ft | 548 kts | 102° |
| 2026-05-06 18:42 | 24.32762 | 41.83522 | 35048 ft | 538 kts | 110° |
| 2026-05-06 18:42 | 24.30572 | 41.92083 | 35053 ft | 538 kts | 112° |
| 2026-05-06 18:43 | 24.28329 | 42.00604 | 35054 ft | 535 kts | 112° |
| 2026-05-06 18:43 | 24.26093 | 42.09081 | 35054 ft | 536 kts | 112° |
| 2026-05-06 18:44 | 24.23827 | 42.17654 | 35057 ft | 536 kts | 112° |
| 2026-05-06 18:44 | 24.21570 | 42.26170 | 35067 ft | 537 kts | 112° |
| 2026-05-06 18:45 | 24.19281 | 42.34787 | 35069 ft | 536 kts | 112° |
| 2026-05-06 18:45 | 24.17011 | 42.43314 | 35070 ft | 536 kts | 112° |
| 2026-05-06 18:46 | 24.14736 | 42.51840 | 35079 ft | 534 kts | 112° |
| 2026-05-06 18:46 | 24.12467 | 42.60320 | 35078 ft | 535 kts | 112° |
| 2026-05-06 18:47 | 24.10176 | 42.68865 | 35064 ft | 534 kts | 112° |
| 2026-05-06 18:47 | 24.07890 | 42.77366 | 35070 ft | 536 kts | 112° |
| 2026-05-06 18:48 | 24.05614 | 42.85817 | 35078 ft | 532 kts | 112° |
| 2026-05-06 18:48 | 24.03709 | 42.92866 | 35081 ft | 533 kts | 112° |
| 2026-05-06 18:49 | 24.01421 | 43.01321 | 35089 ft | 532 kts | 112° |
| 2026-05-06 18:49 | 23.98743 | 43.11183 | 35088 ft | 533 kts | 112° |
| 2026-05-06 18:50 | 23.96452 | 43.19600 | 35081 ft | 533 kts | 112° |
| 2026-05-06 18:50 | 23.94138 | 43.28086 | 35077 ft | 530 kts | 112° |
| 2026-05-06 18:51 | 23.91839 | 43.36492 | 35086 ft | 530 kts | 112° |
| 2026-05-06 18:51 | 23.89537 | 43.44892 | 35095 ft | 530 kts | 112° |
| 2026-05-06 18:52 | 23.87260 | 43.53186 | 35099 ft | 528 kts | 112° |
| 2026-05-06 18:52 | 23.85085 | 43.61081 | 35124 ft | 534 kts | 112° |
| 2026-05-06 18:52 | 23.83930 | 43.65267 | 35695 ft | 533 kts | 112° |
| 2026-05-06 18:53 | 23.82801 | 43.69365 | 36600 ft | 524 kts | 112° |
| 2026-05-06 18:53 | 23.81685 | 43.73403 | 37052 ft | 524 kts | 112° |
| 2026-05-06 18:53 | 23.80571 | 43.77425 | 37070 ft | 526 kts | 112° |
| 2026-05-06 18:54 | 23.78402 | 43.85254 | 37058 ft | 519 kts | 112° |
| 2026-05-06 18:54 | 23.77042 | 43.93497 | 37067 ft | 530 kts | 99° |
| 2026-05-06 18:55 | 23.76426 | 44.01846 | 37056 ft | 528 kts | 98° |
| 2026-05-06 18:55 | 23.75806 | 44.10251 | 37059 ft | 528 kts | 98° |
| 2026-05-06 18:56 | 23.75174 | 44.18720 | 37053 ft | 529 kts | 98° |
| 2026-05-06 18:56 | 23.74638 | 44.25835 | 37052 ft | 528 kts | 98° |
| 2026-05-06 18:57 | 23.73888 | 44.35713 | 37069 ft | 528 kts | 98° |
| 2026-05-06 18:57 | 23.73232 | 44.44272 | 37070 ft | 525 kts | 98° |
| 2026-05-06 18:58 | 23.72689 | 44.51306 | 37071 ft | 526 kts | 98° |
| 2026-05-06 18:58 | 23.71916 | 44.61248 | 37079 ft | 526 kts | 98° |
| 2026-05-06 18:59 | 23.71271 | 44.69479 | 37054 ft | 524 kts | 99° |
| 2026-05-06 18:59 | 23.70630 | 44.77598 | 37060 ft | 526 kts | 98° |
| 2026-05-06 19:00 | 23.69957 | 44.86082 | 37055 ft | 523 kts | 98° |
| 2026-05-06 19:00 | 23.69275 | 44.94593 | 37040 ft | 524 kts | 98° |
| 2026-05-06 19:01 | 23.68597 | 45.03010 | 37040 ft | 525 kts | 99° |
| 2026-05-06 19:01 | 23.67911 | 45.11462 | 37039 ft | 525 kts | 98° |
| 2026-05-06 19:02 | 23.67219 | 45.19939 | 37031 ft | 523 kts | 98° |
| 2026-05-06 19:02 | 23.66642 | 45.26953 | 37032 ft | 524 kts | 98° |
| 2026-05-06 19:03 | 23.65829 | 45.36780 | 37025 ft | 524 kts | 98° |
| 2026-05-06 19:03 | 23.65249 | 45.43746 | 37010 ft | 523 kts | 98° |
| 2026-05-06 19:04 | 23.64434 | 45.53475 | 37002 ft | 524 kts | 98° |
| 2026-05-06 19:04 | 23.63731 | 45.61806 | 36994 ft | 524 kts | 98° |
| 2026-05-06 19:05 | 23.63142 | 45.68737 | 36966 ft | 523 kts | 98° |
| 2026-05-06 19:05 | 23.62431 | 45.77051 | 36953 ft | 523 kts | 98° |
| 2026-05-06 19:06 | 23.61718 | 45.85339 | 36939 ft | 522 kts | 98° |
| 2026-05-06 19:06 | 23.60879 | 45.95024 | 36938 ft | 523 kts | 98° |
| 2026-05-06 19:07 | 23.60152 | 46.03357 | 36939 ft | 522 kts | 98° |
| 2026-05-06 19:07 | 23.59413 | 46.11778 | 36960 ft | 524 kts | 98° |
| 2026-05-06 19:08 | 23.58676 | 46.20127 | 36983 ft | 524 kts | 98° |
| 2026-05-06 19:08 | 23.58056 | 46.27106 | 36995 ft | 522 kts | 98° |
| 2026-05-06 19:09 | 23.57308 | 46.35480 | 37016 ft | 523 kts | 98° |
| 2026-05-06 19:09 | 23.56555 | 46.43864 | 37034 ft | 523 kts | 98° |
| 2026-05-06 19:10 | 23.55673 | 46.53612 | 37049 ft | 523 kts | 98° |
| 2026-05-06 19:10 | 23.54915 | 46.61935 | 37023 ft | 523 kts | 98° |
| 2026-05-06 19:11 | 23.54155 | 46.70240 | 36985 ft | 524 kts | 98° |
| 2026-05-06 19:11 | 23.53393 | 46.78514 | 36957 ft | 522 kts | 98° |
| 2026-05-06 19:12 | 23.52751 | 46.85442 | 36940 ft | 523 kts | 98° |
| 2026-05-06 19:12 | 23.51844 | 46.95169 | 36923 ft | 523 kts | 98° |
| 2026-05-06 19:13 | 23.51069 | 47.03433 | 36913 ft | 524 kts | 98° |
| 2026-05-06 19:13 | 23.50286 | 47.11749 | 36914 ft | 522 kts | 98° |
| 2026-05-06 19:14 | 23.49497 | 47.20060 | 36917 ft | 523 kts | 98° |
| 2026-05-06 19:14 | 23.48835 | 47.27008 | 36916 ft | 521 kts | 98° |
| 2026-05-06 19:15 | 23.47906 | 47.36700 | 36917 ft | 520 kts | 98° |
| 2026-05-06 19:15 | 23.47107 | 47.44984 | 36914 ft | 522 kts | 98° |
| 2026-05-06 19:16 | 23.46311 | 47.53184 | 36914 ft | 519 kts | 98° |
| 2026-05-06 19:16 | 23.45511 | 47.61393 | 36905 ft | 518 kts | 98° |
| 2026-05-06 19:17 | 23.44845 | 47.68191 | 36885 ft | 518 kts | 99° |
| 2026-05-06 19:17 | 23.43903 | 47.77757 | 36879 ft | 518 kts | 98° |
| 2026-05-06 19:18 | 23.43227 | 47.84585 | 36876 ft | 519 kts | 98° |
| 2026-05-06 19:18 | 23.42410 | 47.92794 | 36866 ft | 517 kts | 98° |
| 2026-05-06 19:19 | 23.41595 | 48.00943 | 36864 ft | 517 kts | 98° |
| 2026-05-06 19:19 | 23.40771 | 48.09124 | 36858 ft | 516 kts | 98° |
| 2026-05-06 19:20 | 23.39807 | 48.18655 | 36857 ft | 516 kts | 98° |
| 2026-05-06 19:20 | 23.38981 | 48.26780 | 36857 ft | 516 kts | 98° |
| 2026-05-06 19:21 | 23.38286 | 48.33573 | 36856 ft | 516 kts | 98° |
| 2026-05-06 19:21 | 23.37777 | 48.43145 | 36851 ft | 517 kts | 94° |
| 2026-05-06 19:22 | 23.37488 | 48.51378 | 36848 ft | 518 kts | 94° |
| 2026-05-06 19:22 | 23.37176 | 48.59575 | 36850 ft | 518 kts | 94° |
| 2026-05-06 19:23 | 23.36904 | 48.66422 | 36840 ft | 516 kts | 95° |
| 2026-05-06 19:23 | 23.36570 | 48.74589 | 36832 ft | 518 kts | 95° |
| 2026-05-06 19:24 | 23.36169 | 48.84161 | 36818 ft | 517 kts | 95° |
| 2026-05-06 19:24 | 23.35880 | 48.90942 | 36804 ft | 516 kts | 95° |
| 2026-05-06 19:25 | 23.35522 | 48.99204 | 36792 ft | 516 kts | 95° |
| 2026-05-06 19:25 | 23.35038 | 49.07572 | 36774 ft | 515 kts | 100° |
| 2026-05-06 19:26 | 23.33674 | 49.17263 | 36777 ft | 513 kts | 101° |
| 2026-05-06 19:26 | 23.32455 | 49.25717 | 36770 ft | 513 kts | 101° |
| 2026-05-06 19:27 | 23.31235 | 49.34164 | 36778 ft | 514 kts | 101° |
| 2026-05-06 19:27 | 23.30043 | 49.42388 | 36782 ft | 513 kts | 101° |
| 2026-05-06 19:28 | 23.29058 | 49.49168 | 36790 ft | 514 kts | 101° |
| 2026-05-06 19:28 | 23.27886 | 49.57201 | 36792 ft | 513 kts | 101° |
| 2026-05-06 19:29 | 23.26518 | 49.66552 | 36782 ft | 513 kts | 101° |
| 2026-05-06 19:29 | 23.25365 | 49.74397 | 36779 ft | 513 kts | 101° |
| 2026-05-06 19:30 | 23.24212 | 49.82223 | 36778 ft | 512 kts | 101° |
| 2026-05-06 19:30 | 23.23033 | 49.90189 | 36781 ft | 511 kts | 101° |
| 2026-05-06 19:31 | 23.21846 | 49.98182 | 36783 ft | 512 kts | 101° |
| 2026-05-06 19:31 | 23.20063 | 50.10142 | 36776 ft | 511 kts | 101° |
| 2026-05-06 19:32 | 23.19068 | 50.16786 | 36774 ft | 512 kts | 101° |
| 2026-05-06 19:32 | 23.17676 | 50.26047 | 36769 ft | 510 kts | 101° |
| 2026-05-06 19:33 | 23.16669 | 50.32726 | 36766 ft | 511 kts | 101° |
| 2026-05-06 19:33 | 23.15267 | 50.41985 | 36762 ft | 511 kts | 101° |
| 2026-05-06 19:34 | 23.14058 | 50.49946 | 36763 ft | 509 kts | 101° |
| 2026-05-06 19:34 | 23.12848 | 50.57883 | 36757 ft | 510 kts | 101° |
| 2026-05-06 19:35 | 23.11841 | 50.64471 | 36751 ft | 509 kts | 101° |
| 2026-05-06 19:35 | 23.10420 | 50.73728 | 36737 ft | 510 kts | 101° |
| 2026-05-06 19:36 | 23.09201 | 50.81643 | 36734 ft | 509 kts | 101° |
| 2026-05-06 19:36 | 23.07980 | 50.89542 | 36734 ft | 509 kts | 101° |
| 2026-05-06 19:37 | 23.06761 | 50.97404 | 36727 ft | 508 kts | 101° |
| 2026-05-06 19:37 | 23.05741 | 51.03958 | 36728 ft | 509 kts | 101° |
| 2026-05-06 19:38 | 23.04522 | 51.11771 | 36726 ft | 508 kts | 101° |
| 2026-05-06 19:38 | 23.03292 | 51.19632 | 36724 ft | 507 kts | 101° |
| 2026-05-06 19:39 | 23.01857 | 51.28767 | 36721 ft | 506 kts | 101° |
| 2026-05-06 19:39 | 23.00626 | 51.36567 | 36722 ft | 507 kts | 101° |
| 2026-05-06 19:40 | 22.99599 | 51.43062 | 36720 ft | 506 kts | 101° |
| 2026-05-06 19:40 | 22.98358 | 51.50886 | 36719 ft | 505 kts | 101° |
| 2026-05-06 19:41 | 22.97118 | 51.58676 | 36719 ft | 506 kts | 101° |
| 2026-05-06 19:41 | 22.95663 | 51.67789 | 36711 ft | 505 kts | 102° |
| 2026-05-06 19:42 | 22.94617 | 51.74315 | 36708 ft | 505 kts | 101° |
| 2026-05-06 19:42 | 22.93158 | 51.83391 | 36712 ft | 505 kts | 101° |
| 2026-05-06 19:43 | 22.91896 | 51.91212 | 36714 ft | 505 kts | 101° |
| 2026-05-06 19:43 | 22.90848 | 51.97695 | 36718 ft | 504 kts | 101° |
| 2026-05-06 19:44 | 22.89579 | 52.05512 | 36723 ft | 505 kts | 101° |
| 2026-05-06 19:44 | 22.88317 | 52.13266 | 36724 ft | 504 kts | 101° |
| 2026-05-06 19:45 | 22.87054 | 52.20999 | 36726 ft | 504 kts | 101° |
| 2026-05-06 19:45 | 22.85574 | 52.30036 | 36730 ft | 504 kts | 101° |
| 2026-05-06 19:46 | 22.84304 | 52.37759 | 36732 ft | 504 kts | 101° |
| 2026-05-06 19:46 | 22.83019 | 52.45548 | 36735 ft | 504 kts | 101° |
| 2026-05-06 19:47 | 22.82301 | 52.53315 | 36743 ft | 506 kts | 92° |
| 2026-05-06 19:47 | 22.82118 | 52.61190 | 36738 ft | 506 kts | 92° |
| 2026-05-06 19:48 | 22.81927 | 52.69055 | 36732 ft | 506 kts | 92° |
| 2026-05-06 19:48 | 22.81727 | 52.76929 | 36735 ft | 506 kts | 92° |
| 2026-05-06 19:49 | 22.81520 | 52.84760 | 36736 ft | 506 kts | 92° |
| 2026-05-06 19:49 | 22.81310 | 52.92563 | 36736 ft | 505 kts | 92° |
| 2026-05-06 19:50 | 22.81130 | 52.99070 | 36738 ft | 506 kts | 92° |
| 2026-05-06 19:50 | 22.80872 | 53.08219 | 36738 ft | 506 kts | 92° |
| 2026-05-06 19:51 | 22.80648 | 53.16022 | 36736 ft | 507 kts | 92° |
| 2026-05-06 19:51 | 22.80418 | 53.23879 | 36735 ft | 506 kts | 92° |
| 2026-05-06 19:52 | 22.80186 | 53.31683 | 36735 ft | 507 kts | 92° |
| 2026-05-06 19:52 | 22.79991 | 53.38154 | 36734 ft | 506 kts | 92° |
| 2026-05-06 19:53 | 22.79751 | 53.45971 | 36736 ft | 506 kts | 92° |
| 2026-05-06 19:53 | 22.79509 | 53.53771 | 36739 ft | 506 kts | 92° |
| 2026-05-06 19:54 | 22.79220 | 53.62874 | 36737 ft | 508 kts | 92° |
| 2026-05-06 19:54 | 22.79011 | 53.69387 | 36727 ft | 506 kts | 93° |
| 2026-05-06 19:55 | 22.78758 | 53.77170 | 36726 ft | 506 kts | 93° |
| 2026-05-06 19:55 | 22.78465 | 53.86020 | 36732 ft | 506 kts | 93° |
| 2026-05-06 19:56 | 22.78249 | 53.92429 | 36738 ft | 507 kts | 93° |
| 2026-05-06 19:56 | 22.78271 | 54.00122 | 36752 ft | 508 kts | 83° |
| 2026-05-06 19:57 | 22.79647 | 54.07628 | 36749 ft | 509 kts | 77° |
| 2026-05-06 19:57 | 22.81458 | 54.16475 | 36745 ft | 509 kts | 77° |
| 2026-05-06 19:58 | 22.82724 | 54.22692 | 36748 ft | 508 kts | 78° |
| 2026-05-06 19:58 | 22.84280 | 54.30362 | 36749 ft | 508 kts | 77° |
| 2026-05-06 19:59 | 22.85840 | 54.38078 | 36754 ft | 508 kts | 77° |
| 2026-05-06 19:59 | 22.87632 | 54.46970 | 36753 ft | 508 kts | 77° |
| 2026-05-06 20:00 | 22.89172 | 54.54635 | 36755 ft | 507 kts | 77° |
| 2026-05-06 20:00 | 22.90445 | 54.60990 | 36757 ft | 507 kts | 77° |
| 2026-05-06 20:01 | 22.92011 | 54.68824 | 36751 ft | 508 kts | 78° |
| 2026-05-06 20:01 | 22.93813 | 54.77861 | 36751 ft | 507 kts | 78° |
| 2026-05-06 20:02 | 22.95095 | 54.84316 | 36753 ft | 507 kts | 78° |
| 2026-05-06 20:02 | 22.96666 | 54.92238 | 36757 ft | 506 kts | 78° |
| 2026-05-06 20:03 | 22.98174 | 54.99861 | 36760 ft | 506 kts | 78° |
| 2026-05-06 20:03 | 23.00030 | 55.09205 | 36752 ft | 506 kts | 75° |
| 2026-05-06 20:04 | 23.02259 | 55.15442 | 36767 ft | 506 kts | 60° |
| 2026-05-06 20:04 | 23.06521 | 55.21585 | 36759 ft | 503 kts | 42° |
| 2026-05-06 20:05 | 23.10243 | 55.24842 | 36761 ft | 499 kts | 30° |
| 2026-05-06 20:05 | 23.12339 | 55.26172 | 36764 ft | 497 kts | 24° |
| 2026-05-06 20:05 | 23.19031 | 55.28807 | 36766 ft | 493 kts | 12° |
| 2026-05-06 20:06 | 23.25917 | 55.30877 | 36761 ft | 494 kts | 12° |
| 2026-05-06 20:06 | 23.32738 | 55.32907 | 36768 ft | 493 kts | 12° |
| 2026-05-06 20:07 | 23.39601 | 55.34944 | 36768 ft | 493 kts | 12° |
| 2026-05-06 20:07 | 23.46387 | 55.36955 | 36781 ft | 493 kts | 12° |
| 2026-05-06 20:08 | 23.53254 | 55.38990 | 36782 ft | 493 kts | 12° |
| 2026-05-06 20:08 | 23.60217 | 55.41051 | 36787 ft | 493 kts | 12° |
| 2026-05-06 20:09 | 23.67095 | 55.43090 | 36791 ft | 493 kts | 12° |
| 2026-05-06 20:09 | 23.74034 | 55.45148 | 36791 ft | 494 kts | 12° |
| 2026-05-06 20:10 | 23.82125 | 55.47551 | 36683 ft | 487 kts | 11° |
| 2026-05-06 20:10 | 23.84389 | 55.48224 | 36198 ft | 487 kts | 11° |
| 2026-05-06 20:10 | 23.88985 | 55.49588 | 34931 ft | 489 kts | 11° |
| 2026-05-06 20:11 | 23.91267 | 55.50266 | 34377 ft | 489 kts | 11° |
| 2026-05-06 20:11 | 23.94686 | 55.51281 | 33544 ft | 489 kts | 11° |
| 2026-05-06 20:11 | 23.98133 | 55.52467 | 32656 ft | 492 kts | 18° |
| 2026-05-06 20:11 | 24.02407 | 55.54907 | 31544 ft | 498 kts | 30° |
| 2026-05-06 20:12 | 24.05273 | 55.57340 | 30659 ft | 503 kts | 38° |
| 2026-05-06 20:12 | 24.07091 | 55.59122 | 30257 ft | 499 kts | 39° |
| 2026-05-06 20:12 | 24.09746 | 55.61763 | 29772 ft | 492 kts | 39° |
| 2026-05-06 20:12 | 24.12350 | 55.64356 | 29245 ft | 486 kts | 39° |
| 2026-05-06 20:13 | 24.14881 | 55.66874 | 28696 ft | 481 kts | 40° |
| 2026-05-06 20:13 | 24.17470 | 55.69450 | 28122 ft | 476 kts | 40° |
| 2026-05-06 20:13 | 24.19994 | 55.71960 | 27565 ft | 471 kts | 40° |
| 2026-05-06 20:13 | 24.23355 | 55.75302 | 26788 ft | 466 kts | 40° |
| 2026-05-06 20:14 | 24.25009 | 55.76948 | 26413 ft | 463 kts | 40° |
| 2026-05-06 20:14 | 24.27466 | 55.79392 | 25836 ft | 458 kts | 40° |
| 2026-05-06 20:14 | 24.29913 | 55.81827 | 25261 ft | 454 kts | 40° |
| 2026-05-06 20:14 | 24.32296 | 55.84199 | 24701 ft | 450 kts | 41° |
| 2026-05-06 20:15 | 24.35497 | 55.87388 | 23922 ft | 444 kts | 41° |
| 2026-05-06 20:15 | 24.37086 | 55.88971 | 23526 ft | 441 kts | 41° |
| 2026-05-06 20:15 | 24.40191 | 55.92065 | 22745 ft | 435 kts | 41° |
| 2026-05-06 20:15 | 24.42503 | 55.94371 | 22171 ft | 430 kts | 41° |
| 2026-05-06 20:16 | 24.44064 | 55.95928 | 21776 ft | 427 kts | 41° |
| 2026-05-06 20:16 | 24.46341 | 55.98200 | 21199 ft | 422 kts | 42° |
| 2026-05-06 20:16 | 24.48514 | 56.00370 | 20644 ft | 418 kts | 42° |
| 2026-05-06 20:16 | 24.50796 | 56.02649 | 20037 ft | 415 kts | 42° |
| 2026-05-06 20:17 | 24.53082 | 56.04933 | 19422 ft | 411 kts | 43° |
| 2026-05-06 20:17 | 24.55271 | 56.07126 | 18844 ft | 407 kts | 43° |
| 2026-05-06 20:17 | 24.57490 | 56.09319 | 18229 ft | 403 kts | 39° |
| 2026-05-06 20:17 | 24.60815 | 56.11583 | 17433 ft | 400 kts | 24° |
| 2026-05-06 20:18 | 24.62660 | 56.12324 | 17031 ft | 398 kts | 17° |
| 2026-05-06 20:18 | 24.65433 | 56.12995 | 16424 ft | 396 kts | 12° |
| 2026-05-06 20:18 | 24.68144 | 56.13536 | 15841 ft | 393 kts | 11° |
| 2026-05-06 20:18 | 24.70979 | 56.14085 | 15219 ft | 390 kts | 11° |
| 2026-05-06 20:19 | 24.73801 | 56.14623 | 14617 ft | 386 kts | 11° |
| 2026-05-06 20:19 | 24.76574 | 56.15063 | 14033 ft | 383 kts | 4° |
| 2026-05-06 20:19 | 24.79293 | 56.14962 | 13476 ft | 381 kts | 352° |
| 2026-05-06 20:19 | 24.82838 | 56.13847 | 12726 ft | 376 kts | 338° |
| 2026-05-06 20:20 | 24.84457 | 56.13088 | 12668 ft | 364 kts | 337° |
| 2026-05-06 20:20 | 24.86753 | 56.11993 | 12660 ft | 346 kts | 337° |
| 2026-05-06 20:20 | 24.88956 | 56.10935 | 12620 ft | 330 kts | 337° |
| 2026-05-06 20:20 | 24.91838 | 56.09539 | 12458 ft | 313 kts | 336° |
| 2026-05-06 20:21 | 24.93155 | 56.08896 | 12363 ft | 306 kts | 336° |
| 2026-05-06 20:21 | 24.95106 | 56.07938 | 12230 ft | 295 kts | 336° |
| 2026-05-06 20:21 | 24.96976 | 56.06910 | 12068 ft | 286 kts | 323° |
| 2026-05-06 20:21 | 24.98931 | 56.04886 | 11886 ft | 280 kts | 313° |
| 2026-05-06 20:22 | 24.99828 | 56.03807 | 11797 ft | 280 kts | 313° |
| 2026-05-06 20:22 | 25.01195 | 56.02134 | 11593 ft | 279 kts | 312° |
| 2026-05-06 20:22 | 25.02531 | 56.00497 | 11438 ft | 277 kts | 312° |
| 2026-05-06 20:22 | 25.03833 | 55.98902 | 11297 ft | 277 kts | 312° |
| 2026-05-06 20:23 | 25.05129 | 55.97316 | 11144 ft | 277 kts | 312° |
| 2026-05-06 20:23 | 25.06432 | 55.95721 | 11002 ft | 276 kts | 312° |
| 2026-05-06 20:23 | 25.08182 | 55.93576 | 10832 ft | 275 kts | 312° |
| 2026-05-06 20:23 | 25.09047 | 55.92514 | 10727 ft | 274 kts | 313° |
| 2026-05-06 20:24 | 25.10342 | 55.90926 | 10568 ft | 273 kts | 312° |
| 2026-05-06 20:24 | 25.11663 | 55.89303 | 10447 ft | 273 kts | 312° |
| 2026-05-06 20:24 | 25.12926 | 55.87754 | 10306 ft | 272 kts | 312° |
| 2026-05-06 20:24 | 25.14203 | 55.86185 | 10174 ft | 272 kts | 312° |
| 2026-05-06 20:25 | 25.15464 | 55.84598 | 10020 ft | 271 kts | 307° |
| 2026-05-06 20:25 | 25.16559 | 55.82801 | 9828 ft | 274 kts | 302° |
| 2026-05-06 20:25 | 25.17555 | 55.81007 | 9478 ft | 275 kts | 302° |
| 2026-05-06 20:25 | 25.18885 | 55.78606 | 9043 ft | 274 kts | 302° |
| 2026-05-06 20:26 | 25.19554 | 55.77404 | 8852 ft | 272 kts | 302° |
| 2026-05-06 20:26 | 25.20538 | 55.75621 | 8781 ft | 261 kts | 299° |
| 2026-05-06 20:26 | 25.21063 | 55.73671 | 8408 ft | 265 kts | 272° |
| 2026-05-06 20:26 | 25.20661 | 55.71641 | 8047 ft | 266 kts | 241° |
| 2026-05-06 20:27 | 25.19473 | 55.70081 | 7991 ft | 253 kts | 220° |
| 2026-05-06 20:27 | 25.17952 | 55.69097 | 7877 ft | 252 kts | 195° |
| 2026-05-06 20:27 | 25.16226 | 55.68977 | 7576 ft | 250 kts | 166° |
| 2026-05-06 20:27 | 25.14272 | 55.70184 | 7339 ft | 239 kts | 128° |
| 2026-05-06 20:28 | 25.13672 | 55.71196 | 7255 ft | 234 kts | 110° |
| 2026-05-06 20:28 | 25.13097 | 55.72853 | 7158 ft | 228 kts | 112° |
| 2026-05-06 20:28 | 25.12390 | 55.74376 | 7029 ft | 217 kts | 118° |
| 2026-05-06 20:28 | 25.11624 | 55.75798 | 7008 ft | 213 kts | 120° |
| 2026-05-06 20:29 | 25.10791 | 55.77133 | 7000 ft | 214 kts | 133° |
| 2026-05-06 20:29 | 25.09586 | 55.78106 | 6982 ft | 216 kts | 155° |
| 2026-05-06 20:29 | 25.08089 | 55.78524 | 6855 ft | 217 kts | 178° |
| 2026-05-06 20:29 | 25.06579 | 55.78274 | 6753 ft | 220 kts | 200° |
| 2026-05-06 20:30 | 25.05255 | 55.77411 | 6387 ft | 226 kts | 224° |
| 2026-05-06 20:30 | 25.04060 | 55.74274 | 5588 ft | 227 kts | 275° |
| 2026-05-06 20:30 | 25.04458 | 55.72612 | 5357 ft | 219 kts | 300° |
| 2026-05-06 20:31 | 25.05429 | 55.71344 | 5209 ft | 206 kts | 322° |
| 2026-05-06 20:31 | 25.06461 | 55.70159 | 5182 ft | 209 kts | 308° |
| 2026-05-06 20:31 | 25.07294 | 55.68783 | 5111 ft | 209 kts | 303° |
| 2026-05-06 20:31 | 25.08322 | 55.66941 | 5009 ft | 208 kts | 303° |
| 2026-05-06 20:32 | 25.09113 | 55.65521 | 4926 ft | 209 kts | 303° |
| 2026-05-06 20:32 | 25.09625 | 55.64575 | 4866 ft | 210 kts | 301° |
| 2026-05-06 20:32 | 25.10383 | 55.63102 | 4609 ft | 212 kts | 301° |
| 2026-05-06 20:32 | 25.11180 | 55.61620 | 4340 ft | 210 kts | 302° |
| 2026-05-06 20:33 | 25.11991 | 55.60162 | 4075 ft | 209 kts | 303° |
| 2026-05-06 20:33 | 25.12787 | 55.58758 | 3818 ft | 207 kts | 303° |
| 2026-05-06 20:33 | 25.13572 | 55.57377 | 3563 ft | 207 kts | 303° |
| 2026-05-06 20:33 | 25.14413 | 55.55890 | 3286 ft | 207 kts | 303° |
| 2026-05-06 20:34 | 25.15246 | 55.54411 | 3007 ft | 207 kts | 302° |
| 2026-05-06 20:34 | 25.16041 | 55.52992 | 2741 ft | 205 kts | 302° |
| 2026-05-06 20:34 | 25.16828 | 55.51586 | 2472 ft | 202 kts | 302° |
| 2026-05-06 20:34 | 25.17593 | 55.50217 | 2207 ft | 188 kts | 303° |
| 2026-05-06 20:35 | 25.18314 | 55.48927 | 1948 ft | 175 kts | 303° |
| 2026-05-06 20:35 | 25.19014 | 55.47675 | 1717 ft | 169 kts | 303° |
| 2026-05-06 20:35 | 25.19695 | 55.46454 | 1479 ft | 169 kts | 303° |
| 2026-05-06 20:35 | 25.20340 | 55.45297 | 1248 ft | 162 kts | 303° |
| 2026-05-06 20:36 | 25.20958 | 55.44191 | 1036 ft | 153 kts | 303° |
| 2026-05-06 20:36 | 25.21539 | 55.43148 | 812 ft | 150 kts | 303° |
| 2026-05-06 20:36 | 25.22078 | 55.42155 | 616 ft | 147 kts | 303° |
| 2026-05-06 20:36 | 25.22616 | 55.41208 | 430 ft | 143 kts | 304° |
| 2026-05-06 20:37 | 25.23162 | 55.40255 | 264 ft | 144 kts | 303° |
| 2026-05-06 20:37 | 25.23688 | 55.39317 | 89 ft | 140 kts | 303° |
| 2026-05-06 20:37 | 25.24139 | 55.38495 | 77 ft | 108 kts | 301° |
| 2026-05-06 20:37 | 25.24470 | 55.37895 | 77 ft | 72 kts | 302° |
| 2026-05-06 20:38 | 25.24671 | 55.37536 | 76 ft | 40 kts | 301° |
| 2026-05-06 20:38 | 25.24775 | 55.37291 | 76 ft | 26 kts | 281° |
| 2026-05-06 20:38 | 25.24788 | 55.37157 | 76 ft | 11 kts | 274° |
| 2026-05-06 20:38 | 25.24791 | 55.37071 | 76 ft | 10 kts | 271° |
| 2026-05-06 20:39 | 25.24792 | 55.36992 | 76 ft | 9 kts | 273° |
| 2026-05-06 20:39 | 25.24816 | 55.36917 | 76 ft | 8 kts | 299° |
| 2026-05-06 20:39 | 25.24846 | 55.36851 | 76 ft | 8 kts | 290° |
| 2026-05-06 20:39 | 25.24864 | 55.36773 | 76 ft | 10 kts | 284° |
| 2026-05-06 20:40 | 25.24888 | 55.36681 | 76 ft | 12 kts | 292° |
| 2026-05-06 20:40 | 25.24934 | 55.36590 | 76 ft | 13 kts | 302° |
| 2026-05-06 20:40 | 25.24940 | 55.36526 | 76 ft | 2 kts | 223° |
| 2026-05-06 20:40 | 25.24912 | 55.36509 | 76 ft | 6 kts | 209° |
| 2026-05-06 20:41 | 25.24873 | 55.36484 | 76 ft | 5 kts | 211° |
| 2026-05-06 20:41 | 25.24832 | 55.36457 | 76 ft | 5 kts | 211° |
| 2026-05-06 20:41 | 25.24813 | 55.36445 | 76 ft | 2 kts | 211° |
| 2026-05-06 20:41 | 25.24803 | 55.36438 | 76 ft | 0 kts | 210° |